CDT,Max TemperatureF,Mean TemperatureF,Min TemperatureF,Max Dew PointF,MeanDew PointF,Min DewpointF,Max Humidity, Mean Humidity, Min Humidity, Max Sea Level PressureIn, Mean Sea Level PressureIn, Min Sea Level PressureIn, Max VisibilityMiles, Mean VisibilityMiles, Min VisibilityMiles, Max Wind SpeedMPH, Mean Wind SpeedMPH, Max Gust SpeedMPH,PrecipitationIn, CloudCover, Events, WindDirDegrees
2013-10-1,69,56,42,41,38,36,81,51,30,29.94,29.84,29.77,10,10,10,22,11,29,0.00,0,,240
2013-10-2,71,52,33,50,41,34,100,77,27,30.03,29.98,29.91,10,10,4,14,3,21,0.00,3,Rain-Thunderstorm,132
2013-10-3,53,52,50,50,49,46,94,92,87,30.01,29.94,29.90,10,9,2,13,6,18,0.00,8,Rain-Thunderstorm,53
2013-10-4,55,52,50,48,47,45,94,85,77,30.07,30.03,29.97,10,10,5,18,10,25,0.00,8,Rain,57
2013-10-5,50,48,46,48,46,45,100,92,87,29.96,29.85,29.72,10,6,2,17,11,26,0.00,8,Rain-Thunderstorm,58
2013-10-6,50,44,37,46,44,36,100,92,82,29.77,29.72,29.66,10,8,2,12,6,18,0.00,6,Rain,3
2013-10-7,60,48,37,45,38,34,100,73,36,29.95,29.88,29.77,10,10,2,10,5,,0.00,0,,304
2013-10-8,71,52,33,45,40,34,100,62,35,29.95,29.84,29.75,10,10,1,20,5,29,0.00,0,,186
2013-10-9,71,60,48,52,48,45,100,68,46,30.03,29.96,29.86,10,10,10,13,7,20,0.00,0,,198
2013-10-10,73,58,42,50,46,41,100,70,36,30.03,29.96,29.89,10,8,0,10,2,20,0.00,0,Fog,150
2013-10-11,73,60,46,55,49,45,93,65,43,29.91,29.77,29.59,10,10,4,20,6,33,0.02,2,Rain-Thunderstorm,131
2013-10-12,59,52,46,55,44,41,93,79,62,30.09,29.82,29.61,10,10,4,17,10,26,0.00,8,,221
2013-10-13,55,44,33,41,34,30,100,74,41,30.38,30.31,30.10,10,10,10,12,4,22,0.00,0,,275
2013-10-14,51,42,32,41,36,32,100,81,50,30.40,30.28,30.06,10,10,5,16,2,22,0.00,5,Rain,68
2013-10-15,46,44,42,45,43,41,100,93,87,30.05,29.83,29.72,10,7,3,15,9,23,0.09,8,Rain,45
2013-10-16,53,42,32,41,35,32,100,76,44,29.91,29.87,29.83,10,9,4,10,6,,0.00,4,,329
2013-10-17,46,38,30,45,37,30,100,93,87,29.83,29.79,29.75,10,8,4,13,2,20,0.04,6,Rain,343
2013-10-18,50,42,33,37,33,27,100,79,46,29.92,29.85,29.78,10,10,7,14,6,18,0.00,6,Rain,305
2013-10-19,44,36,28,36,32,27,100,83,53,29.77,29.69,29.65,10,9,2,10,2,16,0.02,5,Rain,308
2013-10-20,33,30,26,32,30,23,100,97,86,29.80,29.71,29.67,10,6,0,9,2,16,0.11,7,Rain-Snow,332
2013-10-21,33,32,30,32,26,21,93,78,65,29.88,29.83,29.80,10,10,10,16,8,24,0.00,8,Snow,285
2013-10-22,35,32,28,30,27,23,93,81,65,29.99,29.95,29.88,10,10,5,12,4,,0.00,6,Snow,340
2013-10-23,35,32,30,30,25,21,93,76,60,30.04,29.98,29.93,10,10,10,12,5,17,0.00,8,Snow,299
2013-10-24,41,36,30,30,27,25,87,75,60,30.24,30.15,30.04,10,10,4,13,6,18,0.00,8,Snow,289
2013-10-25,50,36,23,37,30,23,100,74,57,30.24,29.97,29.68,10,10,10,18,6,26,0.00,2,,232
2013-10-26,46,39,32,36,30,27,87,70,53,30.03,29.93,29.72,10,10,7,18,10,29,0.02,7,Rain,314
2013-10-27,50,39,28,32,28,25,93,73,47,30.21,29.90,29.75,10,10,10,18,6,26,0.00,4,,310
2013-10-28,35,30,24,27,22,18,100,71,60,30.48,30.40,30.22,10,10,10,14,8,20,0.00,5,,38
2013-10-29,32,28,23,32,28,21,100,92,80,30.43,30.28,30.12,10,8,1,5,1,,0.03,6,Snow,51
2013-10-30,41,36,32,39,36,32,100,95,87,30.11,29.90,29.65,10,3,0,6,2,,0.00,8,Fog-Rain,57
2013-10-31,42,40,39,41,40,37,100,97,87,29.65,29.45,29.34,10,4,0,8,2,,0.01,8,Fog-Rain,316